createdAt,value
2023-07-11T00:01:30.725Z,39.97
2023-07-11T00:03:59.238Z,40.15
2023-07-11T00:06:27.285Z,39.20
2023-07-11T00:08:56.741Z,40.28
2023-07-11T00:11:26.140Z,40.33
2023-07-11T00:13:57.034Z,43.03
2023-07-11T00:16:25.276Z,43.95
2023-07-11T00:18:53.367Z,45.03
2023-07-11T00:21:21.453Z,44.67
2023-07-11T00:23:49.527Z,45.97
2023-07-11T00:26:19.407Z,47.78
2023-07-11T00:28:47.621Z,48.63
2023-07-11T00:31:15.771Z,50.22
2023-07-11T00:33:43.953Z,51.63
2023-07-11T00:36:12.139Z,52.47
2023-07-11T00:38:40.317Z,53.60
2023-07-11T00:41:09.889Z,55.15
2023-07-11T00:43:39.296Z,57.65
2023-07-11T00:46:14.014Z,60.30
2023-07-11T00:48:46.566Z,61.75
2023-07-11T00:51:18.085Z,62.53
2023-07-11T00:53:49.073Z,63.88
2023-07-11T00:56:21.234Z,65.38
2023-07-11T00:58:52.100Z,67.07
2023-07-11T01:01:22.213Z,67.50
2023-07-11T01:03:52.856Z,67.95
2023-07-11T01:06:23.654Z,69.47
2023-07-11T01:08:54.339Z,69.45
2023-07-11T01:11:24.412Z,70.78
2023-07-11T01:13:54.105Z,71.82
2023-07-11T01:16:22.734Z,72.97
2023-07-11T01:18:51.028Z,73.13
2023-07-11T01:21:22.746Z,75.38
2023-07-11T01:23:51.552Z,75.07
2023-07-11T01:26:19.674Z,77.13
2023-07-11T01:28:48.381Z,77.95
2023-07-11T01:31:16.621Z,79.30
2023-07-11T01:33:44.764Z,79.43
2023-07-11T01:36:12.949Z,80.40
2023-07-11T01:38:42.836Z,82.65
2023-07-11T01:41:11.951Z,83.13
2023-07-11T01:43:40.215Z,82.97
2023-07-11T01:46:08.928Z,83.20
2023-07-11T01:48:37.296Z,84.30
2023-07-11T01:51:05.366Z,83.30
2023-07-11T01:53:33.489Z,83.13
2023-07-11T01:56:05.608Z,82.88
2023-07-11T01:58:35.543Z,82.03
2023-07-11T02:01:03.858Z,82.90
2023-07-11T02:03:32.306Z,82.68
2023-07-11T02:06:00.433Z,81.82
2023-07-11T02:08:28.543Z,82.15
2023-07-11T02:10:56.682Z,83.00
2023-07-11T02:13:26.195Z,83.13
2023-07-11T02:15:54.993Z,81.93
2023-07-11T02:18:24.383Z,82.65
2023-07-11T02:20:52.749Z,83.30
2023-07-11T02:23:22.699Z,81.22
2023-07-11T02:25:54.416Z,82.88
2023-07-11T02:28:22.601Z,83.25
2023-07-11T02:30:52.056Z,82.88
2023-07-11T02:33:20.251Z,81.57
2023-07-11T02:35:48.419Z,82.88
2023-07-11T02:38:16.514Z,83.55
2023-07-11T02:40:44.561Z,84.22
2023-07-11T02:43:12.734Z,83.38
2023-07-11T02:45:41.375Z,81.85
2023-07-11T02:48:10.936Z,82.30
2023-07-11T02:50:39.133Z,82.70
2023-07-11T02:53:07.193Z,81.82
2023-07-11T02:55:35.333Z,81.68
2023-07-11T02:58:03.368Z,81.18
2023-07-11T03:00:31.944Z,80.60
2023-07-11T03:03:00.047Z,78.50
2023-07-11T03:05:29.707Z,78.32
2023-07-11T03:07:57.865Z,77.65
2023-07-11T03:10:25.915Z,77.60
2023-07-11T03:12:53.915Z,76.88
2023-07-11T03:15:22.093Z,75.03
2023-07-11T03:17:50.139Z,73.90
2023-07-11T03:20:18.370Z,71.55
2023-07-11T03:22:48.221Z,70.18
2023-07-11T03:25:16.479Z,70.90
2023-07-11T03:27:44.518Z,71.72
2023-07-11T03:30:13.089Z,74.20
2023-07-11T03:32:41.228Z,76.05
2023-07-11T03:35:10.210Z,78.07
2023-07-11T03:37:38.412Z,77.45
2023-07-11T03:40:09.721Z,73.80
2023-07-11T03:42:38.028Z,70.88
2023-07-11T03:45:07.535Z,69.65
2023-07-11T03:47:35.761Z,67.93
2023-07-11T03:50:04.365Z,65.47
2023-07-11T03:52:32.431Z,60.33
2023-07-11T03:55:00.473Z,61.10
2023-07-11T03:57:30.049Z,59.72
2023-07-11T03:59:58.257Z,59.75
2023-07-11T04:02:26.347Z,59.42
2023-07-11T04:04:54.579Z,60.83
2023-07-11T04:07:22.646Z,63.00
2023-07-11T04:09:50.846Z,63.72
2023-07-11T04:12:19.001Z,62.75
2023-07-11T04:14:48.476Z,60.15
2023-07-11T04:17:16.548Z,61.15
2023-07-11T04:19:44.649Z,57.67
2023-07-11T04:22:12.730Z,56.83
2023-07-11T04:24:40.854Z,55.28
2023-07-11T04:27:08.967Z,52.22
2023-07-11T04:29:37.752Z,49.15
2023-07-11T04:32:08.520Z,49.60
2023-07-11T04:34:36.711Z,49.25
2023-07-11T04:37:04.966Z,48.53
2023-07-11T04:39:33.052Z,48.80
2023-07-11T04:42:01.183Z,48.28
2023-07-11T04:44:29.228Z,48.00
2023-07-11T04:46:57.383Z,48.20
2023-07-11T04:49:26.736Z,48.47
2023-07-11T04:51:54.868Z,46.97
2023-07-11T04:54:24.178Z,47.20
2023-07-11T04:56:58.268Z,45.40
2023-07-11T04:59:27.430Z,44.03
2023-07-11T05:01:55.625Z,44.33
2023-07-11T05:04:24.381Z,45.42
2023-07-11T05:06:54.159Z,45.60
2023-07-11T05:09:23.140Z,44.60
2023-07-11T05:11:52.549Z,41.42
2023-07-11T05:14:20.785Z,40.70
2023-07-11T05:16:49.069Z,39.95
2023-07-11T05:19:17.540Z,40.25
2023-07-11T05:21:45.617Z,38.58
2023-07-11T05:24:15.122Z,38.17
2023-07-11T05:26:43.277Z,37.03
2023-07-11T05:29:11.703Z,37.28
2023-07-11T05:31:39.919Z,36.55
2023-07-11T05:34:08.028Z,37.13
2023-07-11T05:36:37.170Z,35.95
2023-07-11T05:39:07.945Z,35.95
2023-07-11T05:41:39.485Z,34.95
2023-07-11T05:44:07.635Z,34.47
2023-07-11T05:46:35.694Z,34.05
2023-07-11T05:49:04.428Z,33.10
2023-07-11T05:51:33.003Z,33.42
2023-07-11T05:54:01.063Z,34.05
2023-07-11T05:56:29.825Z,34.22
2023-07-11T05:59:00.349Z,33.75
2023-07-11T06:01:31.736Z,32.40
2023-07-11T06:04:08.823Z,32.25
2023-07-11T06:06:43.208Z,31.77
2023-07-11T06:09:13.354Z,30.27
2023-07-11T06:11:41.619Z,28.02
2023-07-11T06:14:11.850Z,28.08
2023-07-11T06:16:41.363Z,27.67
2023-07-11T06:19:09.518Z,27.88
2023-07-11T06:21:37.549Z,28.17
2023-07-11T06:24:05.993Z,25.27
2023-07-11T06:26:34.193Z,25.70
2023-07-11T06:29:02.269Z,25.98
2023-07-11T06:31:31.799Z,24.33
2023-07-11T06:33:59.876Z,24.30
2023-07-11T06:36:27.989Z,22.95
2023-07-11T06:38:56.261Z,23.48
2023-07-11T06:41:24.376Z,21.60
2023-07-11T06:43:52.487Z,21.70
2023-07-11T06:46:20.664Z,19.52
2023-07-11T06:48:50.170Z,17.90
2023-07-11T06:51:18.340Z,17.83
2023-07-11T06:53:46.472Z,17.75
2023-07-11T06:56:15.523Z,17.77
2023-07-11T06:58:43.693Z,18.65
2023-07-11T07:01:30.985Z,17.17
2023-07-11T07:04:06.473Z,15.00
2023-07-11T07:06:36.502Z,14.65
2023-07-11T07:09:05.996Z,14.18
2023-07-11T07:11:34.243Z,13.32
2023-07-11T07:14:06.309Z,11.65
2023-07-11T07:16:36.293Z,12.90
2023-07-11T07:19:06.922Z,13.20
2023-07-11T07:21:35.345Z,14.23
2023-07-11T07:24:03.791Z,14.68
2023-07-11T07:26:32.185Z,13.85
2023-07-11T07:29:00.275Z,13.88
2023-07-11T07:31:28.630Z,12.50
2023-07-11T07:33:56.959Z,11.80
2023-07-11T07:36:26.436Z,11.55
2023-07-11T07:38:54.541Z,11.30
2023-07-11T07:41:23.023Z,11.45
2023-07-11T07:43:51.087Z,11.65
2023-07-11T07:46:20.527Z,11.40
2023-07-11T07:48:48.742Z,11.50
2023-07-11T07:51:19.215Z,10.73
2023-07-11T07:53:49.413Z,10.98
2023-07-11T07:56:19.790Z,10.40
2023-07-11T07:58:48.167Z,10.07
2023-07-11T08:01:18.094Z,9.77
2023-07-11T08:03:46.706Z,10.27
2023-07-11T08:06:17.708Z,9.43
2023-07-11T08:08:46.890Z,9.60
2023-07-11T08:11:18.184Z,9.13
2023-07-11T08:16:30.790Z,9.07
2023-07-11T08:19:02.912Z,9.30
2023-07-11T08:21:31.127Z,8.88
2023-07-11T08:23:59.229Z,8.65
2023-07-11T08:26:28.838Z,8.70
2023-07-11T08:28:58.010Z,8.88
2023-07-11T08:31:26.487Z,8.73
2023-07-11T08:33:54.705Z,8.00
2023-07-11T08:36:22.957Z,8.68
2023-07-11T08:38:51.028Z,7.78
2023-07-11T08:41:34.026Z,8.63
2023-07-11T08:44:07.047Z,7.97
2023-07-11T08:46:41.476Z,8.02
2023-07-11T08:49:15.732Z,8.13
2023-07-11T08:51:51.561Z,8.07
2023-07-11T08:54:23.314Z,8.27
2023-07-11T08:56:53.585Z,7.82
2023-07-11T08:59:25.919Z,8.68
2023-07-11T09:01:59.296Z,8.00
2023-07-11T09:04:29.043Z,7.90
2023-07-11T09:07:00.501Z,7.70
2023-07-11T09:09:28.733Z,7.45
2023-07-11T09:12:09.481Z,7.30
2023-07-11T09:14:50.364Z,8.02
2023-07-11T09:17:26.603Z,7.60
2023-07-11T09:20:17.211Z,7.85
2023-07-11T09:22:55.790Z,7.82
2023-07-11T09:25:29.320Z,7.95
2023-07-11T09:28:04.675Z,7.97
2023-07-11T09:30:39.660Z,8.32
2023-07-11T09:33:16.611Z,8.13
2023-07-11T09:35:46.738Z,8.30
2023-07-11T09:38:20.366Z,7.60
2023-07-11T09:40:53.851Z,7.57
2023-07-11T09:43:23.521Z,7.43
2023-07-11T09:45:51.663Z,8.02
2023-07-11T09:48:23.634Z,7.60
2023-07-11T09:51:13.724Z,8.45
2023-07-11T09:53:47.558Z,7.20
2023-07-11T09:56:18.606Z,7.47
2023-07-11T09:58:52.034Z,7.35
2023-07-11T10:01:25.167Z,7.75
2023-07-11T10:03:56.936Z,7.80
2023-07-11T10:09:18.049Z,8.10
2023-07-11T10:11:54.213Z,7.72
2023-07-11T10:14:28.638Z,7.22
2023-07-11T10:16:59.076Z,7.13
2023-07-11T10:19:28.985Z,7.15
2023-07-11T10:22:01.535Z,7.35
2023-07-11T10:24:39.092Z,6.25
2023-07-11T10:27:14.157Z,5.68
2023-07-11T10:29:48.262Z,5.70
2023-07-11T10:32:22.710Z,5.70
2023-07-11T10:34:55.498Z,6.35
2023-07-11T10:37:32.455Z,5.80
2023-07-11T10:40:07.194Z,5.70
2023-07-11T10:42:41.119Z,5.22
2023-07-11T10:45:16.622Z,5.45
2023-07-11T10:47:53.943Z,5.43
2023-07-11T10:50:32.180Z,5.70
2023-07-11T10:53:06.311Z,5.53
2023-07-11T10:55:40.251Z,6.18
2023-07-11T10:58:11.720Z,5.60
2023-07-11T11:00:51.063Z,5.60
2023-07-11T11:03:37.272Z,5.68
2023-07-11T11:06:25.602Z,6.10
2023-07-11T11:09:05.958Z,5.53
2023-07-11T11:11:43.376Z,5.57
2023-07-11T11:14:17.276Z,5.75
2023-07-11T11:17:01.548Z,5.45
2023-07-11T11:19:46.680Z,5.13
2023-07-11T11:22:22.623Z,4.95
2023-07-11T11:25:00.172Z,5.32
2023-07-11T11:27:41.715Z,5.80
2023-07-11T11:30:26.012Z,5.20
2023-07-11T11:33:13.721Z,5.30
2023-07-11T11:35:52.721Z,5.82
2023-07-11T11:38:40.912Z,5.63
2023-07-11T11:41:14.792Z,5.20
2023-07-11T11:51:28.641Z,4.50
2023-07-11T11:54:08.901Z,4.53
2023-07-11T11:56:43.188Z,5.10
2023-07-11T11:59:19.453Z,5.10
2023-07-11T12:02:05.487Z,4.70
2023-07-11T12:04:56.185Z,4.72
2023-07-11T12:07:34.114Z,4.80
2023-07-11T12:10:15.650Z,4.88
2023-07-11T12:13:19.853Z,5.25
2023-07-11T12:15:54.279Z,4.70
2023-07-11T12:18:46.123Z,4.82
2023-07-11T12:21:48.252Z,5.68
2023-07-11T12:27:11.896Z,5.65
2023-07-11T12:29:50.227Z,5.50
2023-07-11T12:32:50.399Z,5.30
2023-07-11T12:35:21.273Z,4.72
2023-07-11T12:38:04.398Z,5.10
2023-07-11T12:40:37.746Z,4.95
2023-07-11T12:43:17.715Z,5.20
2023-07-11T12:45:51.107Z,5.47
2023-07-11T12:48:22.031Z,5.13
2023-07-11T12:50:51.905Z,4.88
2023-07-11T12:53:21.711Z,5.00
2023-07-11T12:55:51.345Z,4.47
2023-07-11T12:58:22.084Z,5.13
2023-07-11T13:00:51.642Z,5.13
2023-07-11T13:03:27.522Z,5.13
2023-07-11T13:06:07.323Z,4.90
2023-07-11T13:08:45.497Z,5.07
2023-07-11T13:11:21.793Z,5.10
2023-07-11T13:13:51.096Z,5.18
2023-07-11T13:16:23.276Z,5.25
2023-07-11T13:18:53.390Z,4.90
2023-07-11T13:21:22.397Z,4.75
2023-07-11T13:23:52.001Z,4.68
2023-07-11T13:26:22.526Z,4.60
2023-07-11T13:29:04.906Z,4.63
2023-07-11T13:31:34.591Z,5.10
2023-07-11T13:34:04.464Z,4.65
2023-07-11T13:36:35.907Z,4.60
2023-07-11T13:39:09.339Z,4.57
2023-07-11T13:41:40.792Z,5.00
2023-07-11T13:44:17.705Z,5.13
2023-07-11T13:46:46.897Z,4.80
2023-07-11T13:49:21.569Z,4.82
2023-07-11T13:51:50.376Z,5.30
2023-07-11T13:54:23.806Z,5.18
2023-07-11T13:56:52.227Z,5.00
2023-07-11T13:59:36.880Z,5.22
2023-07-11T14:02:15.266Z,4.22
2023-07-11T14:04:43.838Z,4.88
2023-07-11T14:07:12.855Z,5.00
2023-07-11T14:09:42.740Z,5.30
2023-07-11T14:12:15.896Z,4.93
2023-07-11T14:14:44.161Z,4.97
2023-07-11T14:17:18.635Z,4.97
2023-07-11T14:19:47.072Z,4.13
2023-07-11T14:22:20.255Z,4.72
2023-07-11T14:24:50.701Z,5.43
2023-07-11T14:27:19.702Z,4.72
2023-07-11T14:29:47.895Z,5.60
2023-07-11T14:32:18.315Z,5.18
2023-07-11T14:34:46.841Z,4.95
2023-07-11T14:37:19.240Z,4.80
2023-07-11T14:39:50.469Z,4.85
2023-07-11T14:42:27.561Z,4.93
2023-07-11T14:44:55.753Z,4.65
2023-07-11T14:47:23.979Z,4.90
2023-07-11T14:49:52.177Z,5.00
2023-07-11T14:52:29.987Z,4.97
2023-07-11T15:00:01.777Z,4.75
2023-07-11T15:02:33.973Z,4.28
2023-07-11T15:10:10.671Z,4.35
2023-07-11T15:17:52.839Z,4.90
2023-07-11T15:20:23.297Z,4.93
2023-07-11T15:22:55.197Z,4.85
2023-07-11T15:25:30.793Z,4.95
2023-07-11T15:27:59.720Z,5.40
2023-07-11T15:30:29.110Z,4.78
2023-07-11T15:32:57.831Z,5.05
2023-07-11T15:35:27.789Z,4.68
2023-07-11T15:37:55.914Z,4.70
2023-07-11T15:40:27.716Z,4.65
2023-07-11T15:42:56.669Z,5.03
2023-07-11T15:45:27.006Z,5.10
2023-07-11T15:47:55.971Z,4.68
2023-07-11T15:50:26.276Z,4.93
2023-07-11T15:52:55.255Z,5.03
2023-07-11T15:55:26.687Z,6.18
2023-07-11T15:57:57.006Z,5.80
2023-07-11T16:00:27.465Z,4.95
2023-07-11T16:02:55.941Z,5.35
2023-07-11T16:05:26.404Z,5.32
2023-07-11T16:07:54.644Z,5.10
2023-07-11T16:10:30.149Z,5.47
2023-07-11T16:12:58.885Z,5.75
2023-07-11T16:15:30.950Z,5.57
2023-07-11T16:17:59.590Z,5.53
2023-07-11T16:20:31.267Z,5.50
2023-07-11T16:22:59.508Z,5.60
2023-07-11T16:25:29.785Z,5.40
2023-07-11T16:28:00.783Z,5.85
2023-07-11T16:30:31.444Z,5.82
2023-07-11T16:33:00.475Z,5.63
2023-07-11T16:35:35.334Z,5.55
2023-07-11T16:38:04.589Z,6.10
2023-07-11T16:40:34.546Z,5.93
2023-07-11T16:43:02.642Z,6.53
2023-07-11T16:45:34.679Z,5.65
2023-07-11T16:48:04.327Z,5.88
2023-07-11T16:50:35.065Z,6.10
2023-07-11T16:53:05.438Z,5.63
2023-07-11T16:55:36.211Z,5.47
2023-07-11T16:58:15.813Z,5.18
2023-07-11T17:00:43.980Z,5.53
2023-07-11T17:03:13.021Z,5.68
2023-07-11T17:05:41.309Z,5.70
2023-07-11T17:08:13.833Z,5.65
2023-07-11T17:10:46.741Z,5.63
2023-07-11T17:13:23.089Z,5.78
2023-07-11T17:15:52.152Z,5.53
2023-07-11T17:18:21.569Z,6.13
2023-07-11T17:20:49.817Z,6.55
2023-07-11T17:23:21.268Z,5.65
2023-07-11T17:25:51.137Z,5.60
2023-07-11T17:28:21.326Z,5.95
2023-07-11T17:30:50.565Z,5.90
2023-07-11T17:33:20.721Z,5.40
2023-07-11T17:35:50.012Z,5.13
2023-07-11T17:38:21.820Z,5.57
2023-07-11T17:40:51.417Z,5.57
2023-07-11T17:43:23.131Z,5.40
2023-07-11T17:48:27.271Z,5.60
2023-07-11T17:50:57.512Z,5.05
2023-07-11T17:53:26.411Z,5.65
2023-07-11T17:55:55.976Z,6.40
2023-07-11T17:58:26.525Z,5.20
2023-07-11T18:00:57.792Z,5.45
2023-07-11T18:03:27.255Z,5.95
2023-07-11T18:05:57.010Z,5.07
2023-07-11T18:08:27.947Z,6.35
2023-07-11T18:10:57.579Z,5.30
2023-07-11T18:13:26.650Z,5.80
2023-07-11T18:15:55.440Z,5.22
2023-07-11T18:18:26.162Z,5.15
2023-07-11T18:20:55.889Z,5.38
2023-07-11T18:23:24.642Z,5.60
2023-07-11T18:25:54.913Z,6.40
2023-07-11T18:28:24.927Z,5.47
2023-07-11T18:30:53.352Z,6.15
2023-07-11T18:33:22.495Z,6.03
2023-07-11T18:35:51.204Z,5.32
2023-07-11T18:38:22.461Z,5.82
2023-07-11T18:40:51.416Z,5.82
2023-07-11T18:43:20.207Z,7.40
2023-07-11T18:45:50.800Z,6.70
2023-07-11T18:48:19.027Z,5.43
2023-07-11T18:50:47.338Z,6.47
2023-07-11T18:53:15.494Z,6.22
2023-07-11T18:55:47.217Z,5.82
2023-07-11T18:58:18.556Z,5.80
2023-07-11T19:00:50.260Z,6.43
2023-07-11T19:03:19.896Z,5.80
2023-07-11T19:05:48.649Z,5.60
2023-07-11T19:08:18.934Z,5.85
2023-07-11T19:10:47.608Z,5.93
2023-07-11T19:13:15.841Z,5.88
2023-07-11T19:15:44.920Z,5.90
2023-07-11T19:18:18.224Z,5.78
2023-07-11T19:20:46.817Z,5.88
2023-07-11T19:23:16.877Z,5.80
2023-07-11T19:25:46.856Z,5.13
2023-07-11T19:28:16.879Z,6.18
2023-07-11T19:30:47.977Z,6.22
2023-07-11T19:33:18.235Z,5.53
2023-07-11T19:35:50.551Z,5.47
2023-07-11T19:38:20.835Z,5.90
2023-07-11T19:40:49.799Z,5.53
2023-07-11T19:43:18.196Z,5.93
2023-07-11T19:45:48.370Z,5.70
2023-07-11T19:48:20.363Z,5.88
2023-07-11T19:50:51.643Z,5.75
2023-07-11T19:53:21.621Z,5.75
2023-07-11T19:55:52.133Z,6.10
2023-07-11T19:58:23.477Z,6.80
2023-07-11T20:00:55.464Z,6.50
2023-07-11T20:03:26.043Z,6.47
2023-07-11T20:05:54.476Z,6.00
2023-07-11T20:08:24.968Z,5.93
2023-07-11T20:10:55.178Z,6.18
2023-07-11T20:13:25.655Z,6.28
2023-07-11T20:15:56.627Z,6.15
2023-07-11T20:18:28.597Z,6.32
2023-07-11T20:20:58.252Z,5.75
2023-07-11T20:23:26.507Z,6.63
2023-07-11T20:25:57.491Z,6.72
2023-07-11T20:28:25.785Z,6.82
2023-07-11T20:30:56.353Z,6.32
2023-07-11T20:33:26.078Z,7.20
2023-07-11T20:35:57.402Z,7.97
2023-07-11T20:38:26.888Z,8.32
2023-07-11T20:40:55.003Z,7.80
2023-07-11T20:43:23.356Z,9.52
2023-07-11T20:45:52.068Z,8.80
2023-07-11T20:48:22.920Z,6.20
2023-07-11T20:50:53.454Z,6.88
2023-07-11T20:53:22.162Z,8.40
2023-07-11T20:55:55.948Z,8.38
2023-07-11T20:58:24.671Z,8.90
2023-07-11T21:00:53.733Z,8.45
2023-07-11T21:03:22.631Z,9.38
2023-07-11T21:05:54.237Z,8.63
2023-07-11T21:08:26.990Z,9.93
2023-07-11T21:10:56.308Z,9.93
2023-07-11T21:13:25.069Z,8.95
2023-07-11T21:15:55.354Z,27.83
2023-07-11T21:18:24.975Z,13.05
2023-07-11T21:20:56.264Z,9.02
2023-07-11T21:23:25.108Z,8.02
2023-07-11T21:25:54.977Z,8.45
2023-07-11T21:28:28.696Z,8.20
2023-07-11T21:30:58.788Z,8.50
2023-07-11T21:33:27.960Z,7.90
2023-07-11T21:36:00.783Z,8.18
2023-07-11T21:38:30.745Z,8.65
2023-07-11T21:41:00.980Z,7.47
2023-07-11T21:43:29.086Z,7.60
2023-07-11T21:45:59.267Z,7.97
2023-07-11T21:48:28.943Z,7.82
2023-07-11T21:50:59.750Z,7.93
2023-07-11T21:53:29.974Z,9.55
2023-07-11T21:56:04.020Z,10.48
2023-07-11T21:58:32.170Z,9.88
2023-07-11T22:01:00.317Z,10.98
2023-07-11T22:03:31.783Z,10.07
2023-07-11T22:06:03.259Z,10.25
2023-07-11T22:08:34.176Z,10.45
2023-07-11T22:11:03.282Z,10.70
2023-07-11T22:13:33.463Z,11.02
2023-07-11T22:16:01.684Z,13.00
2023-07-11T22:18:32.031Z,11.73
2023-07-11T22:21:01.658Z,11.48
2023-07-11T22:23:30.191Z,11.20
2023-07-11T22:25:58.262Z,12.25
2023-07-11T22:28:26.450Z,12.15
2023-07-11T22:30:56.543Z,12.32
2023-07-11T22:33:24.707Z,11.43
2023-07-11T22:35:52.911Z,12.90
2023-07-11T22:38:22.385Z,12.80
2023-07-11T22:40:51.799Z,12.40
2023-07-11T22:43:21.929Z,12.70
2023-07-11T22:45:53.307Z,13.40
2023-07-11T22:48:24.250Z,12.70
2023-07-11T22:50:53.435Z,15.27
2023-07-11T22:53:26.934Z,13.98
2023-07-11T22:55:56.898Z,15.02
2023-07-11T22:58:28.406Z,15.27
2023-07-11T23:00:58.031Z,16.90
2023-07-11T23:03:26.843Z,17.10
2023-07-11T23:05:59.713Z,17.20
2023-07-11T23:08:32.223Z,17.20
2023-07-11T23:11:01.812Z,17.90
2023-07-11T23:13:29.916Z,17.30
2023-07-11T23:15:59.783Z,16.80
2023-07-11T23:18:29.158Z,16.08
2023-07-11T23:20:59.242Z,16.23
2023-07-11T23:23:30.906Z,15.75
2023-07-11T23:26:01.273Z,15.00
2023-07-11T23:28:31.707Z,14.85
2023-07-11T23:31:03.367Z,14.77
2023-07-11T23:33:31.718Z,15.82
2023-07-11T23:36:01.568Z,15.00
2023-07-11T23:38:31.288Z,14.25
2023-07-11T23:40:59.426Z,15.73
2023-07-11T23:43:37.128Z,15.52
2023-07-11T23:46:17.579Z,15.80
2023-07-11T23:48:45.789Z,15.80
2023-07-11T23:51:14.064Z,13.90
2023-07-11T23:53:44.402Z,14.35
2023-07-11T23:56:19.266Z,13.48
2023-07-11T23:58:48.124Z,14.65
